sensor_id;sensor_type;location;lat;lon;timestamp;P1;durP1;ratioP1;P2;durP2;ratioP2
15764;SDS011;7983;50.744;7.086;2024-03-08T00:02:23;10.30;;;7.07;;
15764;SDS011;7983;50.744;7.086;2024-03-08T00:04:51;8.47;;;7.03;;
15764;SDS011;7983;50.744;7.086;2024-03-08T00:07:16;11.93;;;7.47;;
15764;SDS011;7983;50.744;7.086;2024-03-08T00:09:42;8.87;;;7.00;;
15764;SDS011;7983;50.744;7.086;2024-03-08T00:12:10;9.63;;;7.30;;
15764;SDS011;7983;50.744;7.086;2024-03-08T00:14:35;8.97;;;6.77;;
15764;SDS011;7983;50.744;7.086;2024-03-08T00:17:04;8.97;;;7.00;;
15764;SDS011;7983;50.744;7.086;2024-03-08T00:19:29;10.30;;;7.50;;
15764;SDS011;7983;50.744;7.086;2024-03-08T00:21:55;8.37;;;6.70;;
15764;SDS011;7983;50.744;7.086;2024-03-08T00:24:23;9.53;;;7.33;;
15764;SDS011;7983;50.744;7.086;2024-03-08T00:26:52;8.77;;;7.10;;
15764;SDS011;7983;50.744;7.086;2024-03-08T00:29:19;8.03;;;6.67;;
15764;SDS011;7983;50.744;7.086;2024-03-08T00:31:47;11.30;;;7.57;;
15764;SDS011;7983;50.744;7.086;2024-03-08T00:34:12;8.97;;;7.17;;
15764;SDS011;7983;50.744;7.086;2024-03-08T00:36:38;10.03;;;7.00;;
15764;SDS011;7983;50.744;7.086;2024-03-08T00:39:04;9.80;;;6.67;;
15764;SDS011;7983;50.744;7.086;2024-03-08T00:41:34;10.10;;;6.87;;
15764;SDS011;7983;50.744;7.086;2024-03-08T00:44:03;7.70;;;6.33;;
15764;SDS011;7983;50.744;7.086;2024-03-08T00:46:29;10.17;;;7.23;;
15764;SDS011;7983;50.744;7.086;2024-03-08T00:49:00;8.90;;;6.87;;
15764;SDS011;7983;50.744;7.086;2024-03-08T00:51:26;9.60;;;7.27;;
15764;SDS011;7983;50.744;7.086;2024-03-08T00:53:51;9.50;;;7.60;;
15764;SDS011;7983;50.744;7.086;2024-03-08T00:56:19;9.27;;;6.87;;
15764;SDS011;7983;50.744;7.086;2024-03-08T00:58:45;10.30;;;7.27;;
15764;SDS011;7983;50.744;7.086;2024-03-08T01:01:12;9.33;;;6.73;;
15764;SDS011;7983;50.744;7.086;2024-03-08T01:03:43;9.70;;;7.07;;
15764;SDS011;7983;50.744;7.086;2024-03-08T01:06:08;10.57;;;7.40;;
15764;SDS011;7983;50.744;7.086;2024-03-08T01:08:34;11.63;;;8.20;;
15764;SDS011;7983;50.744;7.086;2024-03-08T01:11:03;12.53;;;8.40;;
15764;SDS011;7983;50.744;7.086;2024-03-08T01:13:30;11.10;;;8.00;;
15764;SDS011;7983;50.744;7.086;2024-03-08T01:15:56;10.00;;;7.93;;
15764;SDS011;7983;50.744;7.086;2024-03-08T01:18:21;9.67;;;7.37;;
15764;SDS011;7983;50.744;7.086;2024-03-08T01:20:47;10.87;;;7.40;;
15764;SDS011;7983;50.744;7.086;2024-03-08T01:23:13;9.17;;;6.90;;
15764;SDS011;7983;50.744;7.086;2024-03-08T01:25:38;8.60;;;6.80;;
15764;SDS011;7983;50.744;7.086;2024-03-08T01:28:11;10.00;;;7.00;;
15764;SDS011;7983;50.744;7.086;2024-03-08T01:30:37;10.27;;;7.07;;
15764;SDS011;7983;50.744;7.086;2024-03-08T01:33:03;10.40;;;7.33;;
15764;SDS011;7983;50.744;7.086;2024-03-08T01:35:29;11.07;;;7.30;;
15764;SDS011;7983;50.744;7.086;2024-03-08T01:37:55;10.23;;;7.47;;
15764;SDS011;7983;50.744;7.086;2024-03-08T01:40:21;11.93;;;8.23;;
15764;SDS011;7983;50.744;7.086;2024-03-08T01:42:49;10.80;;;7.77;;
15764;SDS011;7983;50.744;7.086;2024-03-08T01:45:14;11.03;;;7.80;;
15764;SDS011;7983;50.744;7.086;2024-03-08T01:47:42;10.50;;;7.73;;
15764;SDS011;7983;50.744;7.086;2024-03-08T01:50:10;11.33;;;8.07;;
15764;SDS011;7983;50.744;7.086;2024-03-08T01:52:36;10.20;;;7.53;;
15764;SDS011;7983;50.744;7.086;2024-03-08T01:55:03;11.60;;;8.40;;
15764;SDS011;7983;50.744;7.086;2024-03-08T01:57:32;11.37;;;7.63;;
15764;SDS011;7983;50.744;7.086;2024-03-08T02:00:03;11.40;;;8.70;;
15764;SDS011;7983;50.744;7.086;2024-03-08T02:02:32;12.13;;;7.90;;
15764;SDS011;7983;50.744;7.086;2024-03-08T02:05:00;10.23;;;7.73;;
15764;SDS011;7983;50.744;7.086;2024-03-08T02:07:26;11.47;;;7.87;;
15764;SDS011;7983;50.744;7.086;2024-03-08T02:09:53;11.40;;;7.83;;
15764;SDS011;7983;50.744;7.086;2024-03-08T02:12:21;10.50;;;7.50;;
15764;SDS011;7983;50.744;7.086;2024-03-08T02:14:47;9.83;;;7.17;;
15764;SDS011;7983;50.744;7.086;2024-03-08T02:17:14;10.70;;;7.57;;
15764;SDS011;7983;50.744;7.086;2024-03-08T02:19:40;10.97;;;8.10;;
15764;SDS011;7983;50.744;7.086;2024-03-08T02:22:08;10.53;;;7.70;;
15764;SDS011;7983;50.744;7.086;2024-03-08T02:24:33;10.10;;;7.80;;
15764;SDS011;7983;50.744;7.086;2024-03-08T02:27:02;10.10;;;7.50;;
15764;SDS011;7983;50.744;7.086;2024-03-08T02:29:28;11.40;;;8.50;;
15764;SDS011;7983;50.744;7.086;2024-03-08T02:31:54;11.20;;;7.83;;
15764;SDS011;7983;50.744;7.086;2024-03-08T02:34:20;11.60;;;8.03;;
15764;SDS011;7983;50.744;7.086;2024-03-08T02:36:46;12.40;;;8.40;;
15764;SDS011;7983;50.744;7.086;2024-03-08T02:39:12;11.40;;;7.77;;
15764;SDS011;7983;50.744;7.086;2024-03-08T02:41:37;10.77;;;7.47;;
15764;SDS011;7983;50.744;7.086;2024-03-08T02:44:05;10.73;;;8.00;;
15764;SDS011;7983;50.744;7.086;2024-03-08T02:46:32;11.57;;;8.20;;
15764;SDS011;7983;50.744;7.086;2024-03-08T02:49:00;10.17;;;7.43;;
15764;SDS011;7983;50.744;7.086;2024-03-08T02:51:26;10.97;;;8.03;;
15764;SDS011;7983;50.744;7.086;2024-03-08T02:53:55;11.53;;;7.67;;
15764;SDS011;7983;50.744;7.086;2024-03-08T02:56:23;10.47;;;7.23;;
15764;SDS011;7983;50.744;7.086;2024-03-08T02:58:49;11.27;;;7.90;;
15764;SDS011;7983;50.744;7.086;2024-03-08T03:01:15;11.20;;;7.57;;
15764;SDS011;7983;50.744;7.086;2024-03-08T03:03:43;10.40;;;7.43;;
15764;SDS011;7983;50.744;7.086;2024-03-08T03:06:12;10.70;;;7.73;;
15764;SDS011;7983;50.744;7.086;2024-03-08T03:08:37;11.50;;;7.73;;
15764;SDS011;7983;50.744;7.086;2024-03-08T03:11:03;9.33;;;6.87;;
15764;SDS011;7983;50.744;7.086;2024-03-08T03:13:29;10.33;;;7.33;;
15764;SDS011;7983;50.744;7.086;2024-03-08T03:15:58;10.03;;;7.47;;
15764;SDS011;7983;50.744;7.086;2024-03-08T03:18:24;11.23;;;8.40;;
15764;SDS011;7983;50.744;7.086;2024-03-08T03:20:51;9.57;;;7.40;;
15764;SDS011;7983;50.744;7.086;2024-03-08T03:23:16;10.57;;;7.73;;
15764;SDS011;7983;50.744;7.086;2024-03-08T03:25:45;10.40;;;7.63;;
15764;SDS011;7983;50.744;7.086;2024-03-08T03:28:11;10.43;;;7.60;;
15764;SDS011;7983;50.744;7.086;2024-03-08T03:30:42;10.07;;;7.70;;
15764;SDS011;7983;50.744;7.086;2024-03-08T03:33:09;12.80;;;8.10;;
15764;SDS011;7983;50.744;7.086;2024-03-08T03:35:37;11.43;;;7.90;;
15764;SDS011;7983;50.744;7.086;2024-03-08T03:38:03;12.23;;;8.10;;
15764;SDS011;7983;50.744;7.086;2024-03-08T03:40:35;10.67;;;8.27;;
15764;SDS011;7983;50.744;7.086;2024-03-08T03:43:06;10.53;;;7.30;;
15764;SDS011;7983;50.744;7.086;2024-03-08T03:45:34;10.60;;;7.43;;
15764;SDS011;7983;50.744;7.086;2024-03-08T03:48:04;9.77;;;7.50;;
15764;SDS011;7983;50.744;7.086;2024-03-08T03:50:31;11.90;;;7.60;;
15764;SDS011;7983;50.744;7.086;2024-03-08T03:52:59;11.03;;;8.07;;
15764;SDS011;7983;50.744;7.086;2024-03-08T03:55:25;10.67;;;7.70;;
15764;SDS011;7983;50.744;7.086;2024-03-08T03:57:52;10.60;;;7.83;;
15764;SDS011;7983;50.744;7.086;2024-03-08T04:00:17;12.73;;;8.03;;
15764;SDS011;7983;50.744;7.086;2024-03-08T04:02:43;10.27;;;7.47;;
15764;SDS011;7983;50.744;7.086;2024-03-08T04:05:10;11.53;;;8.40;;
15764;SDS011;7983;50.744;7.086;2024-03-08T04:07:36;10.07;;;7.23;;
15764;SDS011;7983;50.744;7.086;2024-03-08T04:10:02;11.70;;;7.50;;
15764;SDS011;7983;50.744;7.086;2024-03-08T04:12:32;11.03;;;7.90;;
15764;SDS011;7983;50.744;7.086;2024-03-08T04:15:00;10.10;;;7.47;;
15764;SDS011;7983;50.744;7.086;2024-03-08T04:17:26;12.97;;;8.73;;
15764;SDS011;7983;50.744;7.086;2024-03-08T04:19:52;14.50;;;8.60;;
15764;SDS011;7983;50.744;7.086;2024-03-08T04:22:20;12.83;;;8.03;;
15764;SDS011;7983;50.744;7.086;2024-03-08T04:24:46;11.23;;;7.93;;
15764;SDS011;7983;50.744;7.086;2024-03-08T04:27:12;12.93;;;8.50;;
15764;SDS011;7983;50.744;7.086;2024-03-08T04:29:39;10.77;;;7.67;;
15764;SDS011;7983;50.744;7.086;2024-03-08T04:32:05;10.43;;;7.80;;
15764;SDS011;7983;50.744;7.086;2024-03-08T04:34:34;11.03;;;7.47;;
15764;SDS011;7983;50.744;7.086;2024-03-08T04:37:00;12.07;;;8.40;;
15764;SDS011;7983;50.744;7.086;2024-03-08T04:39:27;20.43;;;14.30;;
15764;SDS011;7983;50.744;7.086;2024-03-08T04:41:53;16.07;;;11.30;;
15764;SDS011;7983;50.744;7.086;2024-03-08T04:44:22;13.63;;;9.67;;
15764;SDS011;7983;50.744;7.086;2024-03-08T04:46:49;13.80;;;9.43;;
15764;SDS011;7983;50.744;7.086;2024-03-08T04:49:15;12.43;;;8.63;;
15764;SDS011;7983;50.744;7.086;2024-03-08T04:51:41;13.33;;;8.80;;
15764;SDS011;7983;50.744;7.086;2024-03-08T04:54:10;13.57;;;9.30;;
15764;SDS011;7983;50.744;7.086;2024-03-08T04:56:35;11.53;;;8.40;;
15764;SDS011;7983;50.744;7.086;2024-03-08T04:59:01;13.10;;;9.33;;
15764;SDS011;7983;50.744;7.086;2024-03-08T05:01:33;12.17;;;8.13;;
15764;SDS011;7983;50.744;7.086;2024-03-08T05:03:59;13.73;;;9.13;;
15764;SDS011;7983;50.744;7.086;2024-03-08T05:06:26;12.20;;;8.80;;
15764;SDS011;7983;50.744;7.086;2024-03-08T05:08:53;10.77;;;8.30;;
15764;SDS011;7983;50.744;7.086;2024-03-08T05:11:24;11.90;;;7.93;;
15764;SDS011;7983;50.744;7.086;2024-03-08T05:13:50;11.60;;;7.93;;
15764;SDS011;7983;50.744;7.086;2024-03-08T05:16:18;13.30;;;8.70;;
15764;SDS011;7983;50.744;7.086;2024-03-08T05:18:50;11.60;;;8.00;;
15764;SDS011;7983;50.744;7.086;2024-03-08T05:21:16;10.20;;;8.10;;
15764;SDS011;7983;50.744;7.086;2024-03-08T05:23:45;12.20;;;8.00;;
15764;SDS011;7983;50.744;7.086;2024-03-08T05:26:10;11.83;;;8.37;;
15764;SDS011;7983;50.744;7.086;2024-03-08T05:28:36;11.87;;;8.07;;
15764;SDS011;7983;50.744;7.086;2024-03-08T05:31:04;11.73;;;8.33;;
15764;SDS011;7983;50.744;7.086;2024-03-08T05:33:32;11.20;;;7.93;;
15764;SDS011;7983;50.744;7.086;2024-03-08T05:35:59;13.50;;;8.90;;
15764;SDS011;7983;50.744;7.086;2024-03-08T05:38:27;12.53;;;8.60;;
15764;SDS011;7983;50.744;7.086;2024-03-08T05:40:53;13.77;;;8.60;;
15764;SDS011;7983;50.744;7.086;2024-03-08T05:43:23;11.50;;;8.00;;
15764;SDS011;7983;50.744;7.086;2024-03-08T05:45:49;11.13;;;8.07;;
15764;SDS011;7983;50.744;7.086;2024-03-08T05:48:15;13.00;;;8.83;;
15764;SDS011;7983;50.744;7.086;2024-03-08T05:50:43;12.00;;;8.33;;
15764;SDS011;7983;50.744;7.086;2024-03-08T05:53:11;12.23;;;8.47;;
15764;SDS011;7983;50.744;7.086;2024-03-08T05:55:38;12.73;;;9.07;;
15764;SDS011;7983;50.744;7.086;2024-03-08T05:58:04;12.33;;;9.00;;
15764;SDS011;7983;50.744;7.086;2024-03-08T06:00:32;12.27;;;8.53;;
15764;SDS011;7983;50.744;7.086;2024-03-08T06:03:03;12.57;;;8.30;;
15764;SDS011;7983;50.744;7.086;2024-03-08T06:05:32;11.97;;;8.17;;
15764;SDS011;7983;50.744;7.086;2024-03-08T06:07:59;11.07;;;7.90;;
15764;SDS011;7983;50.744;7.086;2024-03-08T06:10:25;12.23;;;8.23;;
15764;SDS011;7983;50.744;7.086;2024-03-08T06:12:51;11.83;;;7.83;;
15764;SDS011;7983;50.744;7.086;2024-03-08T06:15:19;13.37;;;9.30;;
15764;SDS011;7983;50.744;7.086;2024-03-08T06:17:48;12.60;;;9.13;;
15764;SDS011;7983;50.744;7.086;2024-03-08T06:20:13;12.93;;;8.60;;
15764;SDS011;7983;50.744;7.086;2024-03-08T06:22:39;13.87;;;8.53;;
15764;SDS011;7983;50.744;7.086;2024-03-08T06:25:09;12.50;;;8.80;;
15764;SDS011;7983;50.744;7.086;2024-03-08T06:27:39;14.20;;;9.07;;
15764;SDS011;7983;50.744;7.086;2024-03-08T06:30:10;12.13;;;8.50;;
15764;SDS011;7983;50.744;7.086;2024-03-08T06:32:43;12.87;;;8.07;;
15764;SDS011;7983;50.744;7.086;2024-03-08T06:35:09;13.30;;;8.77;;
15764;SDS011;7983;50.744;7.086;2024-03-08T06:37:35;13.17;;;9.10;;
15764;SDS011;7983;50.744;7.086;2024-03-08T06:40:01;12.43;;;8.87;;
15764;SDS011;7983;50.744;7.086;2024-03-08T06:42:33;12.03;;;8.70;;
15764;SDS011;7983;50.744;7.086;2024-03-08T06:45:00;13.60;;;9.27;;
15764;SDS011;7983;50.744;7.086;2024-03-08T06:47:29;12.27;;;9.07;;
15764;SDS011;7983;50.744;7.086;2024-03-08T06:49:55;12.70;;;8.93;;
15764;SDS011;7983;50.744;7.086;2024-03-08T06:52:25;12.70;;;8.73;;
15764;SDS011;7983;50.744;7.086;2024-03-08T06:54:51;14.27;;;10.03;;
15764;SDS011;7983;50.744;7.086;2024-03-08T06:57:21;15.70;;;8.97;;
15764;SDS011;7983;50.744;7.086;2024-03-08T06:59:47;12.53;;;8.67;;
15764;SDS011;7983;50.744;7.086;2024-03-08T07:02:13;13.37;;;9.03;;
15764;SDS011;7983;50.744;7.086;2024-03-08T07:04:41;12.77;;;8.80;;
15764;SDS011;7983;50.744;7.086;2024-03-08T07:07:09;18.07;;;9.10;;
15764;SDS011;7983;50.744;7.086;2024-03-08T07:09:35;16.10;;;10.57;;
15764;SDS011;7983;50.744;7.086;2024-03-08T07:12:01;14.13;;;9.40;;
15764;SDS011;7983;50.744;7.086;2024-03-08T07:14:27;15.73;;;9.40;;
15764;SDS011;7983;50.744;7.086;2024-03-08T07:16:58;14.43;;;9.67;;
15764;SDS011;7983;50.744;7.086;2024-03-08T07:19:24;12.97;;;9.73;;
15764;SDS011;7983;50.744;7.086;2024-03-08T07:21:49;13.93;;;9.40;;
15764;SDS011;7983;50.744;7.086;2024-03-08T07:24:17;13.93;;;9.80;;
15764;SDS011;7983;50.744;7.086;2024-03-08T07:26:45;13.83;;;9.67;;
15764;SDS011;7983;50.744;7.086;2024-03-08T07:29:15;12.50;;;9.17;;
15764;SDS011;7983;50.744;7.086;2024-03-08T07:31:41;13.00;;;9.10;;
15764;SDS011;7983;50.744;7.086;2024-03-08T07:34:06;13.20;;;9.43;;
15764;SDS011;7983;50.744;7.086;2024-03-08T07:36:33;14.27;;;9.67;;
15764;SDS011;7983;50.744;7.086;2024-03-08T07:39:01;14.33;;;9.73;;
15764;SDS011;7983;50.744;7.086;2024-03-08T07:41:27;13.13;;;9.40;;
15764;SDS011;7983;50.744;7.086;2024-03-08T07:43:55;13.43;;;8.87;;
15764;SDS011;7983;50.744;7.086;2024-03-08T07:46:22;14.53;;;9.63;;
15764;SDS011;7983;50.744;7.086;2024-03-08T07:48:48;13.87;;;8.90;;
15764;SDS011;7983;50.744;7.086;2024-03-08T07:51:17;12.03;;;8.17;;
15764;SDS011;7983;50.744;7.086;2024-03-08T07:53:45;12.30;;;8.90;;
15764;SDS011;7983;50.744;7.086;2024-03-08T07:56:14;13.13;;;8.87;;
15764;SDS011;7983;50.744;7.086;2024-03-08T07:58:41;13.37;;;9.90;;
15764;SDS011;7983;50.744;7.086;2024-03-08T08:01:07;11.87;;;8.60;;
15764;SDS011;7983;50.744;7.086;2024-03-08T08:03:41;12.70;;;9.07;;
15764;SDS011;7983;50.744;7.086;2024-03-08T08:06:09;14.17;;;10.20;;
15764;SDS011;7983;50.744;7.086;2024-03-08T08:08:40;13.60;;;9.37;;
15764;SDS011;7983;50.744;7.086;2024-03-08T08:11:07;14.17;;;9.13;;
15764;SDS011;7983;50.744;7.086;2024-03-08T08:13:36;13.40;;;9.30;;
15764;SDS011;7983;50.744;7.086;2024-03-08T08:16:02;14.50;;;10.10;;
15764;SDS011;7983;50.744;7.086;2024-03-08T08:18:31;14.20;;;9.97;;
15764;SDS011;7983;50.744;7.086;2024-03-08T08:20:58;13.93;;;9.80;;
15764;SDS011;7983;50.744;7.086;2024-03-08T08:23:26;14.43;;;10.40;;
15764;SDS011;7983;50.744;7.086;2024-03-08T08:25:52;19.13;;;13.17;;
15764;SDS011;7983;50.744;7.086;2024-03-08T08:28:20;16.00;;;11.43;;
15764;SDS011;7983;50.744;7.086;2024-03-08T08:30:46;16.97;;;11.73;;
15764;SDS011;7983;50.744;7.086;2024-03-08T08:33:13;21.03;;;11.73;;
15764;SDS011;7983;50.744;7.086;2024-03-08T08:35:40;16.17;;;11.27;;
15764;SDS011;7983;50.744;7.086;2024-03-08T08:38:05;16.53;;;11.50;;
15764;SDS011;7983;50.744;7.086;2024-03-08T08:40:32;15.60;;;10.97;;
15764;SDS011;7983;50.744;7.086;2024-03-08T08:42:58;15.97;;;11.37;;
15764;SDS011;7983;50.744;7.086;2024-03-08T08:45:24;16.03;;;12.40;;
15764;SDS011;7983;50.744;7.086;2024-03-08T08:47:52;17.13;;;11.60;;
15764;SDS011;7983;50.744;7.086;2024-03-08T08:50:19;16.23;;;11.67;;
15764;SDS011;7983;50.744;7.086;2024-03-08T08:52:48;15.70;;;11.67;;
15764;SDS011;7983;50.744;7.086;2024-03-08T08:55:16;18.20;;;12.77;;
15764;SDS011;7983;50.744;7.086;2024-03-08T08:57:45;14.93;;;10.57;;
15764;SDS011;7983;50.744;7.086;2024-03-08T09:00:12;16.50;;;11.30;;
15764;SDS011;7983;50.744;7.086;2024-03-08T09:02:40;19.43;;;11.37;;
15764;SDS011;7983;50.744;7.086;2024-03-08T09:05:06;16.23;;;11.47;;
15764;SDS011;7983;50.744;7.086;2024-03-08T09:07:36;16.07;;;11.70;;
15764;SDS011;7983;50.744;7.086;2024-03-08T09:10:02;15.77;;;11.03;;
15764;SDS011;7983;50.744;7.086;2024-03-08T09:12:29;17.33;;;12.33;;
15764;SDS011;7983;50.744;7.086;2024-03-08T09:14:57;14.67;;;10.57;;
15764;SDS011;7983;50.744;7.086;2024-03-08T09:17:24;13.57;;;10.03;;
15764;SDS011;7983;50.744;7.086;2024-03-08T09:19:50;14.10;;;10.00;;
15764;SDS011;7983;50.744;7.086;2024-03-08T09:22:16;14.97;;;10.40;;
15764;SDS011;7983;50.744;7.086;2024-03-08T09:24:46;14.30;;;10.73;;
15764;SDS011;7983;50.744;7.086;2024-03-08T09:27:12;12.65;;;9.13;;
15764;SDS011;7983;50.744;7.086;2024-03-08T09:29:38;12.38;;;9.10;;
15764;SDS011;7983;50.744;7.086;2024-03-08T09:32:05;12.68;;;9.60;;
15764;SDS011;7983;50.744;7.086;2024-03-08T09:34:30;12.32;;;9.10;;
15764;SDS011;7983;50.744;7.086;2024-03-08T09:36:58;15.07;;;10.35;;
15764;SDS011;7983;50.744;7.086;2024-03-08T09:39:24;15.98;;;10.10;;
15764;SDS011;7983;50.744;7.086;2024-03-08T09:41:49;12.70;;;9.02;;
15764;SDS011;7983;50.744;7.086;2024-03-08T09:44:17;11.10;;;8.40;;
15764;SDS011;7983;50.744;7.086;2024-03-08T09:46:45;11.13;;;8.10;;
15764;SDS011;7983;50.744;7.086;2024-03-08T09:49:16;9.73;;;7.70;;
15764;SDS011;7983;50.744;7.086;2024-03-08T09:51:44;10.52;;;8.30;;
15764;SDS011;7983;50.744;7.086;2024-03-08T09:54:11;10.93;;;7.78;;
15764;SDS011;7983;50.744;7.086;2024-03-08T09:56:37;11.52;;;8.50;;
15764;SDS011;7983;50.744;7.086;2024-03-08T09:59:09;10.50;;;8.27;;
15764;SDS011;7983;50.744;7.086;2024-03-08T10:01:47;12.70;;;9.52;;
15764;SDS011;7983;50.744;7.086;2024-03-08T10:04:16;15.32;;;9.57;;
15764;SDS011;7983;50.744;7.086;2024-03-08T10:06:46;11.65;;;9.32;;
15764;SDS011;7983;50.744;7.086;2024-03-08T10:09:14;12.13;;;8.73;;
15764;SDS011;7983;50.744;7.086;2024-03-08T10:11:45;11.52;;;8.50;;
15764;SDS011;7983;50.744;7.086;2024-03-08T10:14:10;10.60;;;8.50;;
15764;SDS011;7983;50.744;7.086;2024-03-08T10:16:37;13.90;;;9.40;;
15764;SDS011;7983;50.744;7.086;2024-03-08T10:19:03;10.68;;;8.35;;
15764;SDS011;7983;50.744;7.086;2024-03-08T10:21:30;10.40;;;8.32;;
15764;SDS011;7983;50.744;7.086;2024-03-08T10:23:58;11.52;;;8.48;;
15764;SDS011;7983;50.744;7.086;2024-03-08T10:26:26;10.77;;;8.43;;
15764;SDS011;7983;50.744;7.086;2024-03-08T10:28:52;12.27;;;8.10;;
15764;SDS011;7983;50.744;7.086;2024-03-08T10:31:18;11.43;;;8.57;;
15764;SDS011;7983;50.744;7.086;2024-03-08T10:33:45;13.25;;;9.48;;
15764;SDS011;7983;50.744;7.086;2024-03-08T10:36:11;12.52;;;9.77;;
15764;SDS011;7983;50.744;7.086;2024-03-08T10:38:43;11.63;;;9.35;;
15764;SDS011;7983;50.744;7.086;2024-03-08T10:41:12;11.13;;;8.38;;
15764;SDS011;7983;50.744;7.086;2024-03-08T10:49:06;10.93;;;7.93;;
15764;SDS011;7983;50.744;7.086;2024-03-08T10:51:39;11.00;;;8.13;;
15764;SDS011;7983;50.744;7.086;2024-03-08T10:54:09;12.25;;;8.95;;
15764;SDS011;7983;50.744;7.086;2024-03-08T10:56:36;10.95;;;8.85;;
15764;SDS011;7983;50.744;7.086;2024-03-08T10:59:04;11.50;;;9.32;;
15764;SDS011;7983;50.744;7.086;2024-03-08T11:01:35;16.25;;;9.88;;
15764;SDS011;7983;50.744;7.086;2024-03-08T11:04:04;11.10;;;8.55;;
15764;SDS011;7983;50.744;7.086;2024-03-08T11:09:02;10.50;;;7.45;;
15764;SDS011;7983;50.744;7.086;2024-03-08T11:11:32;9.32;;;7.60;;
15764;SDS011;7983;50.744;7.086;2024-03-08T11:13:59;11.35;;;8.57;;
15764;SDS011;7983;50.744;7.086;2024-03-08T11:19:05;11.32;;;8.40;;
15764;SDS011;7983;50.744;7.086;2024-03-08T11:21:56;9.75;;;7.50;;
15764;SDS011;7983;50.744;7.086;2024-03-08T11:24:23;9.95;;;7.90;;
15764;SDS011;7983;50.744;7.086;2024-03-08T11:26:48;11.18;;;8.15;;
15764;SDS011;7983;50.744;7.086;2024-03-08T11:32:04;11.10;;;8.20;;
15764;SDS011;7983;50.744;7.086;2024-03-08T11:34:31;11.52;;;8.25;;
15764;SDS011;7983;50.744;7.086;2024-03-08T11:36:58;12.63;;;8.55;;
15764;SDS011;7983;50.744;7.086;2024-03-08T11:39:24;9.88;;;7.57;;
15764;SDS011;7983;50.744;7.086;2024-03-08T11:41:50;8.40;;;7.38;;
15764;SDS011;7983;50.744;7.086;2024-03-08T11:44:17;9.48;;;7.13;;
15764;SDS011;7983;50.744;7.086;2024-03-08T11:46:42;8.93;;;6.68;;
15764;SDS011;7983;50.744;7.086;2024-03-08T11:49:13;8.68;;;6.90;;
15764;SDS011;7983;50.744;7.086;2024-03-08T11:51:39;8.23;;;6.82;;
15764;SDS011;7983;50.744;7.086;2024-03-08T11:54:05;8.35;;;6.95;;
15764;SDS011;7983;50.744;7.086;2024-03-08T11:56:36;8.02;;;6.82;;
15764;SDS011;7983;50.744;7.086;2024-03-08T11:59:02;9.25;;;7.30;;
15764;SDS011;7983;50.744;7.086;2024-03-08T12:01:30;11.32;;;7.20;;
15764;SDS011;7983;50.744;7.086;2024-03-08T12:03:56;8.13;;;6.65;;
15764;SDS011;7983;50.744;7.086;2024-03-08T12:06:26;9.23;;;6.88;;
15764;SDS011;7983;50.744;7.086;2024-03-08T12:08:54;10.88;;;7.35;;
15764;SDS011;7983;50.744;7.086;2024-03-08T12:11:22;8.75;;;7.15;;
15764;SDS011;7983;50.744;7.086;2024-03-08T12:13:50;9.00;;;7.05;;
15764;SDS011;7983;50.744;7.086;2024-03-08T12:16:19;8.88;;;7.03;;
15764;SDS011;7983;50.744;7.086;2024-03-08T12:18:50;9.57;;;7.25;;
15764;SDS011;7983;50.744;7.086;2024-03-08T12:21:20;8.63;;;7.30;;
15764;SDS011;7983;50.744;7.086;2024-03-08T12:24:08;9.23;;;7.13;;
15764;SDS011;7983;50.744;7.086;2024-03-08T12:26:38;9.43;;;7.00;;
15764;SDS011;7983;50.744;7.086;2024-03-08T12:29:24;9.30;;;7.00;;
15764;SDS011;7983;50.744;7.086;2024-03-08T12:32:02;10.00;;;7.43;;
15764;SDS011;7983;50.744;7.086;2024-03-08T12:34:30;8.95;;;6.25;;
15764;SDS011;7983;50.744;7.086;2024-03-08T12:36:57;7.72;;;6.13;;
15764;SDS011;7983;50.744;7.086;2024-03-08T12:39:23;8.15;;;6.30;;
15764;SDS011;7983;50.744;7.086;2024-03-08T12:41:52;7.95;;;5.82;;
15764;SDS011;7983;50.744;7.086;2024-03-08T12:44:22;7.28;;;5.60;;
15764;SDS011;7983;50.744;7.086;2024-03-08T12:46:51;9.27;;;6.68;;
15764;SDS011;7983;50.744;7.086;2024-03-08T12:49:18;7.18;;;5.68;;
15764;SDS011;7983;50.744;7.086;2024-03-08T12:51:47;8.63;;;6.30;;
15764;SDS011;7983;50.744;7.086;2024-03-08T12:54:12;7.15;;;5.47;;
15764;SDS011;7983;50.744;7.086;2024-03-08T12:56:38;7.90;;;6.20;;
15764;SDS011;7983;50.744;7.086;2024-03-08T12:59:05;7.78;;;6.18;;
15764;SDS011;7983;50.744;7.086;2024-03-08T13:01:35;8.48;;;6.53;;
15764;SDS011;7983;50.744;7.086;2024-03-08T13:04:04;7.00;;;5.70;;
15764;SDS011;7983;50.744;7.086;2024-03-08T13:06:36;7.80;;;6.38;;
15764;SDS011;7983;50.744;7.086;2024-03-08T13:09:01;8.75;;;6.75;;
15764;SDS011;7983;50.744;7.086;2024-03-08T13:11:30;6.38;;;5.30;;
15764;SDS011;7983;50.744;7.086;2024-03-08T13:14:01;6.97;;;5.22;;
15764;SDS011;7983;50.744;7.086;2024-03-08T13:16:30;8.73;;;6.18;;
15764;SDS011;7983;50.744;7.086;2024-03-08T13:18:56;8.80;;;6.00;;
15764;SDS011;7983;50.744;7.086;2024-03-08T13:21:22;7.45;;;5.72;;
15764;SDS011;7983;50.744;7.086;2024-03-08T13:23:50;9.52;;;7.13;;
15764;SDS011;7983;50.744;7.086;2024-03-08T13:26:18;8.48;;;6.53;;
15764;SDS011;7983;50.744;7.086;2024-03-08T13:28:50;7.93;;;6.18;;
15764;SDS011;7983;50.744;7.086;2024-03-08T13:31:22;10.32;;;7.05;;
15764;SDS011;7983;50.744;7.086;2024-03-08T13:33:47;7.60;;;6.20;;
15764;SDS011;7983;50.744;7.086;2024-03-08T13:36:23;8.95;;;6.20;;
15764;SDS011;7983;50.744;7.086;2024-03-08T13:38:54;9.40;;;6.20;;
15764;SDS011;7983;50.744;7.086;2024-03-08T13:41:24;10.25;;;7.90;;
15764;SDS011;7983;50.744;7.086;2024-03-08T13:43:49;8.90;;;7.03;;
15764;SDS011;7983;50.744;7.086;2024-03-08T13:46:20;9.45;;;7.15;;
15764;SDS011;7983;50.744;7.086;2024-03-08T13:48:46;9.57;;;6.90;;
15764;SDS011;7983;50.744;7.086;2024-03-08T13:51:12;7.68;;;6.47;;
15764;SDS011;7983;50.744;7.086;2024-03-08T13:53:40;9.32;;;6.68;;
15764;SDS011;7983;50.744;7.086;2024-03-08T13:56:09;8.77;;;6.25;;
15764;SDS011;7983;50.744;7.086;2024-03-08T13:58:37;8.43;;;6.70;;
15764;SDS011;7983;50.744;7.086;2024-03-08T14:01:04;7.82;;;6.10;;
15764;SDS011;7983;50.744;7.086;2024-03-08T14:03:36;8.88;;;6.60;;
15764;SDS011;7983;50.744;7.086;2024-03-08T14:06:02;7.43;;;6.03;;
15764;SDS011;7983;50.744;7.086;2024-03-08T14:08:31;9.75;;;7.07;;
15764;SDS011;7983;50.744;7.086;2024-03-08T14:10:58;8.00;;;6.00;;
15764;SDS011;7983;50.744;7.086;2024-03-08T14:13:23;7.50;;;5.97;;
15764;SDS011;7983;50.744;7.086;2024-03-08T14:15:50;10.20;;;7.60;;
15764;SDS011;7983;50.744;7.086;2024-03-08T14:18:17;10.75;;;7.57;;
15764;SDS011;7983;50.744;7.086;2024-03-08T14:20:43;10.43;;;7.60;;
15764;SDS011;7983;50.744;7.086;2024-03-08T14:23:09;10.20;;;6.78;;
15764;SDS011;7983;50.744;7.086;2024-03-08T14:25:35;11.73;;;7.43;;
15764;SDS011;7983;50.744;7.086;2024-03-08T14:28:01;9.95;;;6.60;;
15764;SDS011;7983;50.744;7.086;2024-03-08T14:30:29;8.63;;;6.75;;
15764;SDS011;7983;50.744;7.086;2024-03-08T14:32:58;8.35;;;6.47;;
15764;SDS011;7983;50.744;7.086;2024-03-08T14:35:26;10.18;;;6.20;;
15764;SDS011;7983;50.744;7.086;2024-03-08T14:37:54;7.45;;;5.80;;
15764;SDS011;7983;50.744;7.086;2024-03-08T14:40:22;8.60;;;6.45;;
15764;SDS011;7983;50.744;7.086;2024-03-08T14:42:50;7.80;;;6.10;;
15764;SDS011;7983;50.744;7.086;2024-03-08T14:45:16;9.23;;;5.85;;
15764;SDS011;7983;50.744;7.086;2024-03-08T14:47:48;8.38;;;6.45;;
15764;SDS011;7983;50.744;7.086;2024-03-08T14:50:21;8.60;;;6.40;;
15764;SDS011;7983;50.744;7.086;2024-03-08T14:52:50;10.60;;;7.60;;
15764;SDS011;7983;50.744;7.086;2024-03-08T14:55:20;9.05;;;7.25;;
15764;SDS011;7983;50.744;7.086;2024-03-08T14:57:52;10.20;;;7.47;;
15764;SDS011;7983;50.744;7.086;2024-03-08T15:00:20;7.00;;;5.68;;
15764;SDS011;7983;50.744;7.086;2024-03-08T15:02:58;8.20;;;6.82;;
15764;SDS011;7983;50.744;7.086;2024-03-08T15:05:26;8.75;;;7.28;;
15764;SDS011;7983;50.744;7.086;2024-03-08T15:07:53;9.63;;;6.75;;